sensor_id;sensor_type;location;lat;lon;timestamp;P1;durP1;ratioP1;P2;durP2;ratioP2
49592;SDS011;35499;51.482;4.264;2024-01-30T00:01:06;10.80;;;4.23;;
49592;SDS011;35499;51.482;4.264;2024-01-30T00:03:31;12.50;;;4.73;;
49592;SDS011;35499;51.482;4.264;2024-01-30T00:05:57;10.33;;;5.23;;
49592;SDS011;35499;51.482;4.264;2024-01-30T00:08:22;14.52;;;4.75;;
49592;SDS011;35499;51.482;4.264;2024-01-30T00:10:47;10.85;;;4.95;;
49592;SDS011;35499;51.482;4.264;2024-01-30T00:13:13;9.88;;;4.63;;
49592;SDS011;35499;51.482;4.264;2024-01-30T00:15:39;10.02;;;5.57;;
49592;SDS011;35499;51.482;4.264;2024-01-30T00:18:04;8.47;;;4.70;;
49592;SDS011;35499;51.482;4.264;2024-01-30T00:20:30;10.47;;;5.17;;
49592;SDS011;35499;51.482;4.264;2024-01-30T00:22:55;15.27;;;7.73;;
49592;SDS011;35499;51.482;4.264;2024-01-30T00:25:20;11.20;;;5.20;;
49592;SDS011;35499;51.482;4.264;2024-01-30T00:27:45;11.13;;;4.97;;
49592;SDS011;35499;51.482;4.264;2024-01-30T00:30:11;11.13;;;4.37;;
49592;SDS011;35499;51.482;4.264;2024-01-30T00:32:37;10.80;;;5.18;;
49592;SDS011;35499;51.482;4.264;2024-01-30T00:35:02;11.63;;;4.87;;
49592;SDS011;35499;51.482;4.264;2024-01-30T00:37:27;13.48;;;5.68;;
49592;SDS011;35499;51.482;4.264;2024-01-30T00:39:53;11.23;;;5.70;;
49592;SDS011;35499;51.482;4.264;2024-01-30T00:42:18;8.63;;;4.57;;
49592;SDS011;35499;51.482;4.264;2024-01-30T00:44:44;11.50;;;4.97;;
49592;SDS011;35499;51.482;4.264;2024-01-30T00:47:09;9.75;;;5.03;;
49592;SDS011;35499;51.482;4.264;2024-01-30T00:49:35;8.60;;;4.43;;
49592;SDS011;35499;51.482;4.264;2024-01-30T00:52:01;10.23;;;4.50;;
49592;SDS011;35499;51.482;4.264;2024-01-30T00:54:26;13.37;;;4.53;;
49592;SDS011;35499;51.482;4.264;2024-01-30T00:56:52;11.63;;;5.13;;
49592;SDS011;35499;51.482;4.264;2024-01-30T00:59:17;10.27;;;5.20;;
49592;SDS011;35499;51.482;4.264;2024-01-30T01:01:42;9.70;;;4.73;;
49592;SDS011;35499;51.482;4.264;2024-01-30T01:04:07;7.07;;;3.87;;
49592;SDS011;35499;51.482;4.264;2024-01-30T01:06:33;8.37;;;4.27;;
49592;SDS011;35499;51.482;4.264;2024-01-30T01:08:58;10.90;;;4.18;;
49592;SDS011;35499;51.482;4.264;2024-01-30T01:11:23;8.77;;;4.73;;
49592;SDS011;35499;51.482;4.264;2024-01-30T01:13:49;9.67;;;4.53;;
49592;SDS011;35499;51.482;4.264;2024-01-30T01:16:14;10.90;;;4.87;;
49592;SDS011;35499;51.482;4.264;2024-01-30T01:18:39;10.17;;;4.70;;
49592;SDS011;35499;51.482;4.264;2024-01-30T01:21:04;10.03;;;5.20;;
49592;SDS011;35499;51.482;4.264;2024-01-30T01:23:30;9.43;;;4.70;;
49592;SDS011;35499;51.482;4.264;2024-01-30T01:25:56;7.67;;;4.57;;
49592;SDS011;35499;51.482;4.264;2024-01-30T01:28:21;9.40;;;4.57;;
49592;SDS011;35499;51.482;4.264;2024-01-30T01:30:47;6.97;;;4.10;;
49592;SDS011;35499;51.482;4.264;2024-01-30T01:33:12;9.73;;;4.33;;
49592;SDS011;35499;51.482;4.264;2024-01-30T01:35:39;8.75;;;4.10;;
49592;SDS011;35499;51.482;4.264;2024-01-30T01:38:05;8.75;;;4.60;;
49592;SDS011;35499;51.482;4.264;2024-01-30T01:40:30;11.13;;;5.22;;
49592;SDS011;35499;51.482;4.264;2024-01-30T01:42:56;10.68;;;5.38;;
49592;SDS011;35499;51.482;4.264;2024-01-30T01:45:21;8.68;;;4.05;;
49592;SDS011;35499;51.482;4.264;2024-01-30T01:47:48;10.57;;;4.78;;
49592;SDS011;35499;51.482;4.264;2024-01-30T01:50:17;7.05;;;4.22;;
49592;SDS011;35499;51.482;4.264;2024-01-30T01:52:44;11.77;;;4.90;;
49592;SDS011;35499;51.482;4.264;2024-01-30T01:55:12;8.63;;;4.55;;
49592;SDS011;35499;51.482;4.264;2024-01-30T01:57:38;10.35;;;4.60;;
49592;SDS011;35499;51.482;4.264;2024-01-30T02:00:04;10.63;;;5.22;;
49592;SDS011;35499;51.482;4.264;2024-01-30T02:02:30;10.63;;;5.10;;
49592;SDS011;35499;51.482;4.264;2024-01-30T02:04:59;11.07;;;4.90;;
49592;SDS011;35499;51.482;4.264;2024-01-30T02:07:25;10.13;;;4.90;;
49592;SDS011;35499;51.482;4.264;2024-01-30T02:09:50;8.30;;;2.65;;
49592;SDS011;35499;51.482;4.264;2024-01-30T02:12:16;10.57;;;4.70;;
49592;SDS011;35499;51.482;4.264;2024-01-30T02:14:44;8.87;;;4.77;;
49592;SDS011;35499;51.482;4.264;2024-01-30T02:17:11;11.82;;;4.28;;
49592;SDS011;35499;51.482;4.264;2024-01-30T02:19:37;8.52;;;5.35;;
49592;SDS011;35499;51.482;4.264;2024-01-30T02:22:02;9.67;;;4.77;;
49592;SDS011;35499;51.482;4.264;2024-01-30T02:24:28;9.40;;;3.58;;
49592;SDS011;35499;51.482;4.264;2024-01-30T02:26:54;9.88;;;4.88;;
49592;SDS011;35499;51.482;4.264;2024-01-30T02:29:19;8.60;;;4.83;;
49592;SDS011;35499;51.482;4.264;2024-01-30T02:31:45;11.60;;;5.33;;
49592;SDS011;35499;51.482;4.264;2024-01-30T02:34:11;13.48;;;5.65;;
49592;SDS011;35499;51.482;4.264;2024-01-30T02:36:36;12.95;;;5.10;;
49592;SDS011;35499;51.482;4.264;2024-01-30T02:39:01;10.27;;;5.07;;
49592;SDS011;35499;51.482;4.264;2024-01-30T02:41:27;8.32;;;4.25;;
49592;SDS011;35499;51.482;4.264;2024-01-30T02:43:52;10.23;;;4.63;;
49592;SDS011;35499;51.482;4.264;2024-01-30T02:46:17;8.70;;;4.23;;
49592;SDS011;35499;51.482;4.264;2024-01-30T02:48:43;8.50;;;4.67;;
49592;SDS011;35499;51.482;4.264;2024-01-30T02:51:08;7.73;;;4.70;;
49592;SDS011;35499;51.482;4.264;2024-01-30T02:53:36;8.93;;;4.63;;
49592;SDS011;35499;51.482;4.264;2024-01-30T02:56:02;6.22;;;3.28;;
49592;SDS011;35499;51.482;4.264;2024-01-30T02:58:28;8.70;;;4.57;;
49592;SDS011;35499;51.482;4.264;2024-01-30T03:00:53;8.53;;;4.43;;
49592;SDS011;35499;51.482;4.264;2024-01-30T03:03:18;9.17;;;4.63;;
49592;SDS011;35499;51.482;4.264;2024-01-30T03:05:43;8.97;;;4.33;;
49592;SDS011;35499;51.482;4.264;2024-01-30T03:08:09;9.03;;;5.00;;
49592;SDS011;35499;51.482;4.264;2024-01-30T03:10:34;8.80;;;4.57;;
49592;SDS011;35499;51.482;4.264;2024-01-30T03:12:59;10.60;;;4.57;;
49592;SDS011;35499;51.482;4.264;2024-01-30T03:15:25;8.77;;;5.30;;
49592;SDS011;35499;51.482;4.264;2024-01-30T03:17:50;10.40;;;4.50;;
49592;SDS011;35499;51.482;4.264;2024-01-30T03:20:15;8.13;;;4.38;;
49592;SDS011;35499;51.482;4.264;2024-01-30T03:22:40;8.40;;;5.03;;
49592;SDS011;35499;51.482;4.264;2024-01-30T03:25:06;9.73;;;4.60;;
49592;SDS011;35499;51.482;4.264;2024-01-30T03:27:31;8.93;;;4.57;;
49592;SDS011;35499;51.482;4.264;2024-01-30T03:29:57;7.20;;;4.07;;
49592;SDS011;35499;51.482;4.264;2024-01-30T03:32:22;10.53;;;5.17;;
49592;SDS011;35499;51.482;4.264;2024-01-30T03:34:47;18.27;;;5.40;;
49592;SDS011;35499;51.482;4.264;2024-01-30T03:37:13;11.43;;;4.70;;
49592;SDS011;35499;51.482;4.264;2024-01-30T03:39:38;9.27;;;4.13;;
49592;SDS011;35499;51.482;4.264;2024-01-30T03:42:03;13.33;;;4.37;;
49592;SDS011;35499;51.482;4.264;2024-01-30T03:44:29;8.13;;;3.93;;
49592;SDS011;35499;51.482;4.264;2024-01-30T03:46:54;9.05;;;4.43;;
49592;SDS011;35499;51.482;4.264;2024-01-30T03:49:19;7.63;;;3.83;;
49592;SDS011;35499;51.482;4.264;2024-01-30T03:51:45;8.83;;;4.47;;
49592;SDS011;35499;51.482;4.264;2024-01-30T03:54:12;10.60;;;4.85;;
49592;SDS011;35499;51.482;4.264;2024-01-30T03:56:37;7.88;;;4.55;;
49592;SDS011;35499;51.482;4.264;2024-01-30T03:59:03;9.30;;;4.67;;
49592;SDS011;35499;51.482;4.264;2024-01-30T04:01:28;9.73;;;4.77;;
49592;SDS011;35499;51.482;4.264;2024-01-30T04:03:53;11.18;;;6.03;;
49592;SDS011;35499;51.482;4.264;2024-01-30T04:06:19;10.07;;;5.20;;
49592;SDS011;35499;51.482;4.264;2024-01-30T04:08:44;9.07;;;4.70;;
49592;SDS011;35499;51.482;4.264;2024-01-30T04:11:09;9.07;;;4.93;;
49592;SDS011;35499;51.482;4.264;2024-01-30T04:13:34;8.83;;;4.30;;
49592;SDS011;35499;51.482;4.264;2024-01-30T04:16:00;9.45;;;5.00;;
49592;SDS011;35499;51.482;4.264;2024-01-30T04:18:26;9.90;;;5.07;;
49592;SDS011;35499;51.482;4.264;2024-01-30T04:20:52;6.78;;;3.42;;
49592;SDS011;35499;51.482;4.264;2024-01-30T04:23:17;9.63;;;4.23;;
49592;SDS011;35499;51.482;4.264;2024-01-30T04:25:42;6.73;;;4.17;;
49592;SDS011;35499;51.482;4.264;2024-01-30T04:28:08;8.13;;;3.80;;
49592;SDS011;35499;51.482;4.264;2024-01-30T04:30:33;9.52;;;3.95;;
49592;SDS011;35499;51.482;4.264;2024-01-30T04:32:58;9.03;;;4.50;;
49592;SDS011;35499;51.482;4.264;2024-01-30T04:35:23;8.17;;;4.47;;
49592;SDS011;35499;51.482;4.264;2024-01-30T04:37:49;8.38;;;4.32;;
49592;SDS011;35499;51.482;4.264;2024-01-30T04:40:16;9.43;;;4.78;;
49592;SDS011;35499;51.482;4.264;2024-01-30T04:42:42;13.05;;;4.65;;
49592;SDS011;35499;51.482;4.264;2024-01-30T04:45:07;8.63;;;3.97;;
49592;SDS011;35499;51.482;4.264;2024-01-30T04:47:32;8.27;;;5.13;;
49592;SDS011;35499;51.482;4.264;2024-01-30T04:49:58;8.17;;;3.60;;
49592;SDS011;35499;51.482;4.264;2024-01-30T04:52:23;9.90;;;4.32;;
49592;SDS011;35499;51.482;4.264;2024-01-30T04:54:48;7.00;;;3.37;;
49592;SDS011;35499;51.482;4.264;2024-01-30T04:57:14;8.47;;;4.00;;
49592;SDS011;35499;51.482;4.264;2024-01-30T04:59:39;9.60;;;4.43;;
49592;SDS011;35499;51.482;4.264;2024-01-30T05:02:04;9.43;;;3.88;;
49592;SDS011;35499;51.482;4.264;2024-01-30T05:04:30;9.17;;;4.93;;
49592;SDS011;35499;51.482;4.264;2024-01-30T05:06:55;7.47;;;3.77;;
49592;SDS011;35499;51.482;4.264;2024-01-30T05:09:20;6.97;;;3.07;;
49592;SDS011;35499;51.482;4.264;2024-01-30T05:11:46;10.75;;;4.22;;
49592;SDS011;35499;51.482;4.264;2024-01-30T05:14:11;7.77;;;4.00;;
49592;SDS011;35499;51.482;4.264;2024-01-30T05:16:37;9.27;;;4.63;;
49592;SDS011;35499;51.482;4.264;2024-01-30T05:19:02;11.40;;;5.28;;
49592;SDS011;35499;51.482;4.264;2024-01-30T05:21:27;9.53;;;4.17;;
49592;SDS011;35499;51.482;4.264;2024-01-30T05:23:53;8.50;;;4.15;;
49592;SDS011;35499;51.482;4.264;2024-01-30T05:26:18;7.20;;;3.90;;
49592;SDS011;35499;51.482;4.264;2024-01-30T05:28:43;9.67;;;4.47;;
49592;SDS011;35499;51.482;4.264;2024-01-30T05:31:13;7.93;;;4.20;;
49592;SDS011;35499;51.482;4.264;2024-01-30T05:33:38;11.85;;;5.55;;
49592;SDS011;35499;51.482;4.264;2024-01-30T05:36:05;7.90;;;3.55;;
49592;SDS011;35499;51.482;4.264;2024-01-30T05:38:30;10.82;;;4.32;;
49592;SDS011;35499;51.482;4.264;2024-01-30T05:40:57;12.93;;;4.53;;
49592;SDS011;35499;51.482;4.264;2024-01-30T05:43:25;10.15;;;5.10;;
49592;SDS011;35499;51.482;4.264;2024-01-30T05:45:51;11.03;;;4.93;;
49592;SDS011;35499;51.482;4.264;2024-01-30T05:48:17;9.23;;;4.05;;
49592;SDS011;35499;51.482;4.264;2024-01-30T05:50:42;9.13;;;3.42;;
49592;SDS011;35499;51.482;4.264;2024-01-30T05:53:07;8.23;;;4.80;;
49592;SDS011;35499;51.482;4.264;2024-01-30T05:55:33;9.83;;;4.83;;
49592;SDS011;35499;51.482;4.264;2024-01-30T05:57:58;10.40;;;4.77;;
49592;SDS011;35499;51.482;4.264;2024-01-30T06:00:23;9.17;;;3.53;;
49592;SDS011;35499;51.482;4.264;2024-01-30T06:02:49;8.13;;;3.92;;
49592;SDS011;35499;51.482;4.264;2024-01-30T06:05:15;9.20;;;4.17;;
49592;SDS011;35499;51.482;4.264;2024-01-30T06:07:40;9.30;;;4.25;;
49592;SDS011;35499;51.482;4.264;2024-01-30T06:10:06;11.17;;;4.70;;
49592;SDS011;35499;51.482;4.264;2024-01-30T06:12:32;10.15;;;4.40;;
49592;SDS011;35499;51.482;4.264;2024-01-30T06:14:58;8.00;;;3.90;;
49592;SDS011;35499;51.482;4.264;2024-01-30T06:17:23;10.73;;;4.70;;
49592;SDS011;35499;51.482;4.264;2024-01-30T06:19:49;11.13;;;4.60;;
49592;SDS011;35499;51.482;4.264;2024-01-30T06:22:14;11.70;;;5.15;;
49592;SDS011;35499;51.482;4.264;2024-01-30T06:24:40;8.90;;;4.13;;
49592;SDS011;35499;51.482;4.264;2024-01-30T06:27:05;10.30;;;4.67;;
49592;SDS011;35499;51.482;4.264;2024-01-30T06:29:31;10.95;;;4.03;;
49592;SDS011;35499;51.482;4.264;2024-01-30T06:31:56;8.87;;;4.07;;
49592;SDS011;35499;51.482;4.264;2024-01-30T06:34:22;8.55;;;4.50;;
49592;SDS011;35499;51.482;4.264;2024-01-30T06:36:47;7.00;;;3.23;;
49592;SDS011;35499;51.482;4.264;2024-01-30T06:39:12;8.10;;;3.80;;
49592;SDS011;35499;51.482;4.264;2024-01-30T06:41:38;8.17;;;3.70;;
49592;SDS011;35499;51.482;4.264;2024-01-30T06:44:03;7.80;;;4.23;;
49592;SDS011;35499;51.482;4.264;2024-01-30T06:46:33;7.32;;;3.65;;
49592;SDS011;35499;51.482;4.264;2024-01-30T06:48:59;10.50;;;4.57;;
49592;SDS011;35499;51.482;4.264;2024-01-30T06:51:24;9.20;;;4.22;;
49592;SDS011;35499;51.482;4.264;2024-01-30T06:53:49;12.07;;;4.50;;
49592;SDS011;35499;51.482;4.264;2024-01-30T06:56:15;10.77;;;4.70;;
49592;SDS011;35499;51.482;4.264;2024-01-30T06:58:41;12.52;;;4.97;;
49592;SDS011;35499;51.482;4.264;2024-01-30T07:01:07;9.02;;;4.57;;
49592;SDS011;35499;51.482;4.264;2024-01-30T07:03:32;5.43;;;3.07;;
49592;SDS011;35499;51.482;4.264;2024-01-30T07:05:57;8.30;;;4.30;;
49592;SDS011;35499;51.482;4.264;2024-01-30T07:08:23;8.68;;;4.22;;
49592;SDS011;35499;51.482;4.264;2024-01-30T07:10:48;7.90;;;4.30;;
49592;SDS011;35499;51.482;4.264;2024-01-30T07:13:14;11.10;;;4.30;;
49592;SDS011;35499;51.482;4.264;2024-01-30T07:15:41;9.50;;;3.60;;
49592;SDS011;35499;51.482;4.264;2024-01-30T07:18:07;8.32;;;4.40;;
49592;SDS011;35499;51.482;4.264;2024-01-30T07:20:32;9.85;;;3.80;;
49592;SDS011;35499;51.482;4.264;2024-01-30T07:22:58;8.70;;;4.72;;
49592;SDS011;35499;51.482;4.264;2024-01-30T07:25:23;8.90;;;4.25;;
49592;SDS011;35499;51.482;4.264;2024-01-30T07:27:55;9.93;;;3.92;;
49592;SDS011;35499;51.482;4.264;2024-01-30T07:30:21;9.60;;;4.30;;
49592;SDS011;35499;51.482;4.264;2024-01-30T07:32:48;9.60;;;3.95;;
49592;SDS011;35499;51.482;4.264;2024-01-30T07:35:13;8.13;;;4.05;;
49592;SDS011;35499;51.482;4.264;2024-01-30T07:37:39;11.98;;;4.63;;
49592;SDS011;35499;51.482;4.264;2024-01-30T07:40:05;10.38;;;5.07;;
49592;SDS011;35499;51.482;4.264;2024-01-30T07:42:31;7.82;;;4.18;;
49592;SDS011;35499;51.482;4.264;2024-01-30T07:44:57;11.15;;;3.88;;
49592;SDS011;35499;51.482;4.264;2024-01-30T07:47:22;11.33;;;4.70;;
49592;SDS011;35499;51.482;4.264;2024-01-30T07:49:48;11.53;;;3.67;;
49592;SDS011;35499;51.482;4.264;2024-01-30T07:52:13;7.43;;;4.07;;
49592;SDS011;35499;51.482;4.264;2024-01-30T07:54:47;6.77;;;4.10;;
49592;SDS011;35499;51.482;4.264;2024-01-30T07:57:13;9.82;;;4.53;;
49592;SDS011;35499;51.482;4.264;2024-01-30T07:59:44;8.98;;;4.40;;
49592;SDS011;35499;51.482;4.264;2024-01-30T08:02:13;7.43;;;4.75;;
49592;SDS011;35499;51.482;4.264;2024-01-30T08:04:38;8.90;;;4.20;;
49592;SDS011;35499;51.482;4.264;2024-01-30T08:07:04;9.95;;;3.90;;
49592;SDS011;35499;51.482;4.264;2024-01-30T08:09:29;12.30;;;4.40;;
49592;SDS011;35499;51.482;4.264;2024-01-30T08:11:54;8.23;;;3.83;;
49592;SDS011;35499;51.482;4.264;2024-01-30T08:14:20;8.03;;;3.63;;
49592;SDS011;35499;51.482;4.264;2024-01-30T08:16:45;7.80;;;3.78;;
49592;SDS011;35499;51.482;4.264;2024-01-30T08:19:10;7.32;;;4.93;;
49592;SDS011;35499;51.482;4.264;2024-01-30T08:21:36;10.53;;;5.03;;
49592;SDS011;35499;51.482;4.264;2024-01-30T08:24:04;8.87;;;4.33;;
49592;SDS011;35499;51.482;4.264;2024-01-30T08:26:31;7.97;;;4.00;;
49592;SDS011;35499;51.482;4.264;2024-01-30T08:28:56;8.48;;;3.85;;
49592;SDS011;35499;51.482;4.264;2024-01-30T08:31:22;9.33;;;4.50;;
49592;SDS011;35499;51.482;4.264;2024-01-30T08:33:47;9.70;;;4.17;;
49592;SDS011;35499;51.482;4.264;2024-01-30T08:36:12;13.37;;;4.87;;
49592;SDS011;35499;51.482;4.264;2024-01-30T08:38:38;11.53;;;4.93;;
49592;SDS011;35499;51.482;4.264;2024-01-30T08:41:03;8.38;;;4.15;;
49592;SDS011;35499;51.482;4.264;2024-01-30T08:43:28;8.95;;;4.50;;
49592;SDS011;35499;51.482;4.264;2024-01-30T08:45:54;9.53;;;3.93;;
49592;SDS011;35499;51.482;4.264;2024-01-30T08:48:19;9.37;;;3.63;;
49592;SDS011;35499;51.482;4.264;2024-01-30T08:50:44;8.33;;;4.13;;
49592;SDS011;35499;51.482;4.264;2024-01-30T08:53:09;13.93;;;4.63;;
49592;SDS011;35499;51.482;4.264;2024-01-30T08:55:35;10.53;;;4.40;;
49592;SDS011;35499;51.482;4.264;2024-01-30T08:58:00;10.33;;;4.30;;
49592;SDS011;35499;51.482;4.264;2024-01-30T09:00:25;8.98;;;4.70;;
49592;SDS011;35499;51.482;4.264;2024-01-30T09:02:51;11.40;;;4.68;;
49592;SDS011;35499;51.482;4.264;2024-01-30T09:05:16;9.43;;;4.57;;
49592;SDS011;35499;51.482;4.264;2024-01-30T09:07:41;11.10;;;4.38;;
49592;SDS011;35499;51.482;4.264;2024-01-30T09:10:07;13.67;;;4.87;;
49592;SDS011;35499;51.482;4.264;2024-01-30T09:12:32;10.27;;;4.25;;
49592;SDS011;35499;51.482;4.264;2024-01-30T09:14:57;9.57;;;4.85;;
49592;SDS011;35499;51.482;4.264;2024-01-30T09:17:23;9.38;;;3.60;;
49592;SDS011;35499;51.482;4.264;2024-01-30T09:19:48;9.20;;;4.45;;
49592;SDS011;35499;51.482;4.264;2024-01-30T09:22:14;8.13;;;4.18;;
49592;SDS011;35499;51.482;4.264;2024-01-30T09:24:39;10.23;;;4.33;;
49592;SDS011;35499;51.482;4.264;2024-01-30T09:27:05;8.40;;;4.85;;
49592;SDS011;35499;51.482;4.264;2024-01-30T09:29:31;8.57;;;4.88;;
49592;SDS011;35499;51.482;4.264;2024-01-30T09:34:23;10.30;;;4.97;;
49592;SDS011;35499;51.482;4.264;2024-01-30T09:36:48;8.03;;;4.53;;
49592;SDS011;35499;51.482;4.264;2024-01-30T09:39:13;10.67;;;4.50;;
49592;SDS011;35499;51.482;4.264;2024-01-30T09:41:44;10.52;;;5.32;;
49592;SDS011;35499;51.482;4.264;2024-01-30T09:44:22;8.85;;;4.70;;
49592;SDS011;35499;51.482;4.264;2024-01-30T09:46:49;7.28;;;3.55;;
49592;SDS011;35499;51.482;4.264;2024-01-30T09:49:15;7.82;;;3.63;;
49592;SDS011;35499;51.482;4.264;2024-01-30T09:51:43;7.20;;;4.13;;
49592;SDS011;35499;51.482;4.264;2024-01-30T09:54:10;8.45;;;3.70;;
49592;SDS011;35499;51.482;4.264;2024-01-30T09:56:38;11.45;;;3.83;;
49592;SDS011;35499;51.482;4.264;2024-01-30T09:59:03;9.57;;;3.30;;
49592;SDS011;35499;51.482;4.264;2024-01-30T10:04:32;6.15;;;3.53;;
49592;SDS011;35499;51.482;4.264;2024-01-30T10:06:59;7.30;;;3.70;;
49592;SDS011;35499;51.482;4.264;2024-01-30T10:09:26;7.95;;;3.97;;
49592;SDS011;35499;51.482;4.264;2024-01-30T10:11:52;11.73;;;4.35;;
49592;SDS011;35499;51.482;4.264;2024-01-30T10:14:17;10.35;;;3.67;;
49592;SDS011;35499;51.482;4.264;2024-01-30T10:16:43;9.57;;;4.07;;
49592;SDS011;35499;51.482;4.264;2024-01-30T10:19:10;8.25;;;3.35;;
49592;SDS011;35499;51.482;4.264;2024-01-30T10:21:35;9.20;;;3.33;;
49592;SDS011;35499;51.482;4.264;2024-01-30T10:24:01;6.67;;;2.43;;
49592;SDS011;35499;51.482;4.264;2024-01-30T10:26:26;7.43;;;2.90;;
49592;SDS011;35499;51.482;4.264;2024-01-30T10:28:51;9.93;;;2.28;;
49592;SDS011;35499;51.482;4.264;2024-01-30T10:31:17;7.33;;;2.27;;
49592;SDS011;35499;51.482;4.264;2024-01-30T10:33:44;5.40;;;2.35;;
49592;SDS011;35499;51.482;4.264;2024-01-30T10:36:09;8.25;;;2.92;;
49592;SDS011;35499;51.482;4.264;2024-01-30T10:38:38;6.38;;;1.67;;
49592;SDS011;35499;51.482;4.264;2024-01-30T10:41:07;4.22;;;0.85;;
49592;SDS011;35499;51.482;4.264;2024-01-30T10:43:36;7.95;;;1.10;;
49592;SDS011;35499;51.482;4.264;2024-01-30T10:46:10;6.57;;;0.68;;
49592;SDS011;35499;51.482;4.264;2024-01-30T10:48:42;2.00;;;0.52;;
49592;SDS011;35499;51.482;4.264;2024-01-30T10:51:09;1.85;;;0.43;;
49592;SDS011;35499;51.482;4.264;2024-01-30T10:53:36;5.82;;;0.80;;
49592;SDS011;35499;51.482;4.264;2024-01-30T10:56:02;3.28;;;0.30;;
49592;SDS011;35499;51.482;4.264;2024-01-30T11:00:54;1.67;;;1.00;;
49592;SDS011;35499;51.482;4.264;2024-01-30T11:03:20;1.42;;;0.60;;
49592;SDS011;35499;51.482;4.264;2024-01-30T11:05:49;1.30;;;0.30;;
49592;SDS011;35499;51.482;4.264;2024-01-30T11:08:22;2.45;;;0.30;;
49592;SDS011;35499;51.482;4.264;2024-01-30T11:10:48;2.13;;;0.47;;
49592;SDS011;35499;51.482;4.264;2024-01-30T11:13:14;2.10;;;0.60;;
49592;SDS011;35499;51.482;4.264;2024-01-30T11:15:40;8.57;;;0.70;;
49592;SDS011;35499;51.482;4.264;2024-01-30T11:18:05;2.87;;;0.20;;
49592;SDS011;35499;51.482;4.264;2024-01-30T11:20:31;1.92;;;0.38;;
49592;SDS011;35499;51.482;4.264;2024-01-30T11:22:57;4.45;;;0.40;;
49592;SDS011;35499;51.482;4.264;2024-01-30T11:25:24;1.02;;;0.52;;
49592;SDS011;35499;51.482;4.264;2024-01-30T11:27:51;2.10;;;0.45;;
49592;SDS011;35499;51.482;4.264;2024-01-30T11:32:58;0.70;;;0.22;;
49592;SDS011;35499;51.482;4.264;2024-01-30T11:35:29;1.00;;;0.35;;
49592;SDS011;35499;51.482;4.264;2024-01-30T11:37:55;1.00;;;0.22;;
49592;SDS011;35499;51.482;4.264;2024-01-30T11:40:23;1.73;;;0.50;;
49592;SDS011;35499;51.482;4.264;2024-01-30T11:42:51;1.25;;;0.32;;
49592;SDS011;35499;51.482;4.264;2024-01-30T11:45:17;2.97;;;0.65;;
49592;SDS011;35499;51.482;4.264;2024-01-30T11:47:42;1.30;;;0.35;;
49592;SDS011;35499;51.482;4.264;2024-01-30T11:50:07;1.10;;;0.32;;
49592;SDS011;35499;51.482;4.264;2024-01-30T11:52:35;3.03;;;0.50;;
49592;SDS011;35499;51.482;4.264;2024-01-30T11:55:01;5.50;;;0.52;;
49592;SDS011;35499;51.482;4.264;2024-01-30T11:57:27;5.57;;;0.80;;
49592;SDS011;35499;51.482;4.264;2024-01-30T11:59:53;2.35;;;0.57;;
49592;SDS011;35499;51.482;4.264;2024-01-30T12:02:18;1.23;;;0.33;;
49592;SDS011;35499;51.482;4.264;2024-01-30T12:04:44;2.20;;;0.47;;
49592;SDS011;35499;51.482;4.264;2024-01-30T12:07:09;3.53;;;0.50;;
49592;SDS011;35499;51.482;4.264;2024-01-30T12:09:35;5.65;;;0.95;;
49592;SDS011;35499;51.482;4.264;2024-01-30T12:12:00;5.27;;;1.87;;
49592;SDS011;35499;51.482;4.264;2024-01-30T12:14:26;5.63;;;1.33;;
49592;SDS011;35499;51.482;4.264;2024-01-30T12:16:51;4.30;;;1.23;;
49592;SDS011;35499;51.482;4.264;2024-01-30T12:19:23;8.00;;;1.43;;
49592;SDS011;35499;51.482;4.264;2024-01-30T12:21:56;10.30;;;1.83;;
49592;SDS011;35499;51.482;4.264;2024-01-30T12:24:23;5.60;;;1.50;;
49592;SDS011;35499;51.482;4.264;2024-01-30T12:26:49;10.25;;;1.45;;
49592;SDS011;35499;51.482;4.264;2024-01-30T12:29:15;5.40;;;1.20;;
49592;SDS011;35499;51.482;4.264;2024-01-30T12:31:41;5.73;;;1.27;;
49592;SDS011;35499;51.482;4.264;2024-01-30T12:34:07;4.43;;;1.42;;
49592;SDS011;35499;51.482;4.264;2024-01-30T12:36:33;8.60;;;1.80;;
49592;SDS011;35499;51.482;4.264;2024-01-30T12:38:59;5.50;;;1.20;;
49592;SDS011;35499;51.482;4.264;2024-01-30T12:41:25;7.00;;;1.35;;
49592;SDS011;35499;51.482;4.264;2024-01-30T12:43:53;11.90;;;2.05;;
49592;SDS011;35499;51.482;4.264;2024-01-30T12:46:19;6.70;;;1.20;;
49592;SDS011;35499;51.482;4.264;2024-01-30T12:48:44;3.53;;;0.80;;
49592;SDS011;35499;51.482;4.264;2024-01-30T12:51:10;5.00;;;1.27;;
49592;SDS011;35499;51.482;4.264;2024-01-30T12:53:35;7.47;;;1.48;;
49592;SDS011;35499;51.482;4.264;2024-01-30T12:56:00;8.17;;;1.13;;
49592;SDS011;35499;51.482;4.264;2024-01-30T12:58:26;8.97;;;1.23;;
49592;SDS011;35499;51.482;4.264;2024-01-30T13:00:51;3.73;;;1.10;;
49592;SDS011;35499;51.482;4.264;2024-01-30T13:03:17;3.33;;;0.93;;
49592;SDS011;35499;51.482;4.264;2024-01-30T13:05:42;3.03;;;1.00;;
49592;SDS011;35499;51.482;4.264;2024-01-30T13:08:07;7.95;;;1.33;;
49592;SDS011;35499;51.482;4.264;2024-01-30T13:10:33;5.33;;;1.47;;
49592;SDS011;35499;51.482;4.264;2024-01-30T13:12:58;6.67;;;2.00;;
49592;SDS011;35499;51.482;4.264;2024-01-30T13:15:23;6.73;;;2.03;;
49592;SDS011;35499;51.482;4.264;2024-01-30T13:17:49;5.17;;;1.83;;
49592;SDS011;35499;51.482;4.264;2024-01-30T13:20:15;5.97;;;2.35;;
49592;SDS011;35499;51.482;4.264;2024-01-30T13:22:44;8.43;;;2.13;;
49592;SDS011;35499;51.482;4.264;2024-01-30T13:25:09;12.45;;;2.38;;
49592;SDS011;35499;51.482;4.264;2024-01-30T13:27:35;5.80;;;2.20;;
49592;SDS011;35499;51.482;4.264;2024-01-30T13:30:01;4.88;;;2.33;;
49592;SDS011;35499;51.482;4.264;2024-01-30T13:32:26;5.43;;;2.53;;
49592;SDS011;35499;51.482;4.264;2024-01-30T13:34:51;6.87;;;1.83;;
49592;SDS011;35499;51.482;4.264;2024-01-30T13:37:17;5.10;;;2.33;;
49592;SDS011;35499;51.482;4.264;2024-01-30T13:39:43;2.75;;;1.48;;
49592;SDS011;35499;51.482;4.264;2024-01-30T13:42:08;5.40;;;2.87;;
49592;SDS011;35499;51.482;4.264;2024-01-30T13:44:34;3.93;;;1.63;;
49592;SDS011;35499;51.482;4.264;2024-01-30T13:49:25;5.57;;;2.07;;
49592;SDS011;35499;51.482;4.264;2024-01-30T13:51:52;8.15;;;2.53;;
49592;SDS011;35499;51.482;4.264;2024-01-30T13:54:17;5.65;;;2.67;;
49592;SDS011;35499;51.482;4.264;2024-01-30T13:56:42;4.35;;;2.45;;
49592;SDS011;35499;51.482;4.264;2024-01-30T13:59:08;4.83;;;2.43;;
49592;SDS011;35499;51.482;4.264;2024-01-30T14:01:33;4.37;;;1.80;;
49592;SDS011;35499;51.482;4.264;2024-01-30T14:03:58;8.37;;;2.20;;
49592;SDS011;35499;51.482;4.264;2024-01-30T14:06:24;4.30;;;1.30;;
49592;SDS011;35499;51.482;4.264;2024-01-30T14:08:49;8.27;;;2.40;;
49592;SDS011;35499;51.482;4.264;2024-01-30T14:11:14;5.53;;;2.27;;
49592;SDS011;35499;51.482;4.264;2024-01-30T14:13:40;6.13;;;1.80;;
49592;SDS011;35499;51.482;4.264;2024-01-30T14:16:05;5.30;;;2.03;;
49592;SDS011;35499;51.482;4.264;2024-01-30T14:18:30;4.13;;;2.28;;
49592;SDS011;35499;51.482;4.264;2024-01-30T14:20:56;4.10;;;1.73;;
49592;SDS011;35499;51.482;4.264;2024-01-30T14:23:21;4.97;;;1.40;;
49592;SDS011;35499;51.482;4.264;2024-01-30T14:25:46;4.33;;;1.50;;
49592;SDS011;35499;51.482;4.264;2024-01-30T14:28:12;3.20;;;1.10;;
49592;SDS011;35499;51.482;4.264;2024-01-30T14:30:37;4.95;;;1.17;;
49592;SDS011;35499;51.482;4.264;2024-01-30T14:33:02;3.87;;;1.23;;
49592;SDS011;35499;51.482;4.264;2024-01-30T14:35:28;5.68;;;1.23;;
49592;SDS011;35499;51.482;4.264;2024-01-30T14:37:53;4.30;;;1.63;;
49592;SDS011;35499;51.482;4.264;2024-01-30T14:40:19;3.50;;;1.03;;
49592;SDS011;35499;51.482;4.264;2024-01-30T14:42:45;3.88;;;1.33;;
49592;SDS011;35499;51.482;4.264;2024-01-30T14:45:10;9.77;;;1.65;;
49592;SDS011;35499;51.482;4.264;2024-01-30T14:47:36;3.70;;;1.05;;